Kenai, AK

11:08 PM AKDT on May 05, 2015 (GMT -0800)
Kenai Municipal | | Change Station
CLOSE
Current Station
Airport
Location: Kenai,
Elevation: 95 ft
Nearby Weather Stations

Elev 95 ft 60.58 °N, 151.24 °W | Updated 15 minutes ago

Overcast
Overcast
43 °F
Feels Like 43 °F
N
0
Wind Variable Wind from North

Today
High -- | Low -- °F
--% Chance of Precip.
Yesterday
High -- | Low -- °F
Precip. -- in
5:48 AM 10:16 PM
Waning Gibbous, 95% visible
Pressure 30.14 in
Visibility 8.0 miles
Clouds Few 7000 ft
Overcast 8500 ft
Dew Point 36 °F
Humidity 76%
Rainfall 0.00 in
Snow Depth Not available.
UV 0 out of 12
Pollen Not available.
Air Quality Not available.
Flu Activity Sporadic
METAR PAEN 060653Z AUTO 00000KT 8SM FEW070 OVC085 06/02 A3013 RMK AO2 SLP204 T00610022 TSNO

More Conditions Fewer Conditions

Pressure 30.14 in
Visibility 8.0 miles
Clouds Few 7000 ft
Overcast 8500 ft
Dew Point 36 °F
Humidity 76%
Rainfall 0.00 in
Snow Depth Not available.
UV 0 out of 12
Pollen Not available.
Air Quality Not available.
Flu Activity Sporadic
METAR PAEN 060653Z AUTO 00000KT 8SM FEW070 OVC085 06/02 A3013 RMK AO2 SLP204 T00610022 TSNO

More Conditions Fewer Conditions

10-Day Weather Forecast

Almanac

Astronomy

May. 05, 2015 Rise Set
Actual Time
Civil Twilight
Nautical Twilight
Astronomical Twilight
Moon
Length of Visible Light
Length of Day
Tomorrow will be .
, % of the Moon is Illuminated

Today's Extremes

State Highs State Lows

Community

WunderPhotos

Upload Photos

1,818,850 photos uploaded!

WunderBlogs® & News

Nearby

Air Quality

  Air Quality AQ Index Pollutant
Not available.

Snow Depth

Station Depth Elevation

Earthquake Activity

City Distance Mag. Time & Date
Minimum magnitude displayed is 2.5.

Coastal Water Temperatures

Place Temperature

Stations

Nearby Weather Stations

Station Location Temp. Windchill Dew Point Humidity Wind Precip. Elev Updated Type